sensor_id;sensor_type;location;lat;lon;timestamp;P1;durP1;ratioP1;P2;durP2;ratioP2
19691;SDS011;42748;50.016;19.890;2023-12-20T00:01:46;40.05;;;16.00;;
19691;SDS011;42748;50.016;19.890;2023-12-20T00:04:14;36.50;;;16.05;;
19691;SDS011;42748;50.016;19.890;2023-12-20T00:06:42;40.35;;;16.33;;
19691;SDS011;42748;50.016;19.890;2023-12-20T00:09:10;33.83;;;15.43;;
19691;SDS011;42748;50.016;19.890;2023-12-20T00:11:38;38.10;;;15.45;;
19691;SDS011;42748;50.016;19.890;2023-12-20T00:14:08;36.78;;;15.45;;
19691;SDS011;42748;50.016;19.890;2023-12-20T00:16:35;36.10;;;14.95;;
19691;SDS011;42748;50.016;19.890;2023-12-20T00:19:03;34.30;;;14.43;;
19691;SDS011;42748;50.016;19.890;2023-12-20T00:21:31;36.28;;;15.95;;
19691;SDS011;42748;50.016;19.890;2023-12-20T00:23:58;37.78;;;16.45;;
19691;SDS011;42748;50.016;19.890;2023-12-20T00:26:26;36.22;;;15.50;;
19691;SDS011;42748;50.016;19.890;2023-12-20T00:28:55;34.03;;;15.35;;
19691;SDS011;42748;50.016;19.890;2023-12-20T00:31:22;37.65;;;15.85;;
19691;SDS011;42748;50.016;19.890;2023-12-20T00:33:50;37.00;;;15.38;;
19691;SDS011;42748;50.016;19.890;2023-12-20T00:36:17;32.25;;;14.88;;
19691;SDS011;42748;50.016;19.890;2023-12-20T00:38:46;39.65;;;15.57;;
19691;SDS011;42748;50.016;19.890;2023-12-20T00:41:13;33.65;;;14.15;;
19691;SDS011;42748;50.016;19.890;2023-12-20T00:43:41;34.10;;;13.65;;
19691;SDS011;42748;50.016;19.890;2023-12-20T00:46:08;31.60;;;13.93;;
19691;SDS011;42748;50.016;19.890;2023-12-20T00:48:36;32.28;;;13.68;;
19691;SDS011;42748;50.016;19.890;2023-12-20T00:51:04;34.63;;;13.93;;
19691;SDS011;42748;50.016;19.890;2023-12-20T00:53:31;33.40;;;14.98;;
19691;SDS011;42748;50.016;19.890;2023-12-20T00:55:58;37.92;;;15.75;;
19691;SDS011;42748;50.016;19.890;2023-12-20T00:58:26;33.28;;;15.23;;
19691;SDS011;42748;50.016;19.890;2023-12-20T01:00:54;38.28;;;16.45;;
19691;SDS011;42748;50.016;19.890;2023-12-20T01:03:22;37.92;;;16.75;;
19691;SDS011;42748;50.016;19.890;2023-12-20T01:05:50;43.83;;;18.95;;
19691;SDS011;42748;50.016;19.890;2023-12-20T01:08:17;43.10;;;18.10;;
19691;SDS011;42748;50.016;19.890;2023-12-20T01:10:45;38.97;;;16.92;;
19691;SDS011;42748;50.016;19.890;2023-12-20T01:13:13;36.47;;;16.45;;
19691;SDS011;42748;50.016;19.890;2023-12-20T01:15:41;38.00;;;16.15;;
19691;SDS011;42748;50.016;19.890;2023-12-20T01:18:09;41.30;;;16.95;;
19691;SDS011;42748;50.016;19.890;2023-12-20T01:20:36;33.90;;;14.65;;
19691;SDS011;42748;50.016;19.890;2023-12-20T01:23:04;35.42;;;15.25;;
19691;SDS011;42748;50.016;19.890;2023-12-20T01:25:31;37.95;;;16.45;;
19691;SDS011;42748;50.016;19.890;2023-12-20T01:27:59;34.67;;;15.73;;
19691;SDS011;42748;50.016;19.890;2023-12-20T01:30:26;32.38;;;14.55;;
19691;SDS011;42748;50.016;19.890;2023-12-20T01:32:54;31.25;;;13.82;;
19691;SDS011;42748;50.016;19.890;2023-12-20T01:35:22;32.60;;;14.93;;
19691;SDS011;42748;50.016;19.890;2023-12-20T01:37:49;34.92;;;15.05;;
19691;SDS011;42748;50.016;19.890;2023-12-20T01:40:17;32.22;;;14.95;;
19691;SDS011;42748;50.016;19.890;2023-12-20T01:42:45;29.88;;;14.05;;
19691;SDS011;42748;50.016;19.890;2023-12-20T01:45:12;30.20;;;14.18;;
19691;SDS011;42748;50.016;19.890;2023-12-20T01:47:40;34.38;;;14.55;;
19691;SDS011;42748;50.016;19.890;2023-12-20T01:50:08;37.60;;;15.68;;
19691;SDS011;42748;50.016;19.890;2023-12-20T01:52:36;30.50;;;13.48;;
19691;SDS011;42748;50.016;19.890;2023-12-20T01:55:04;29.27;;;13.40;;
19691;SDS011;42748;50.016;19.890;2023-12-20T01:57:37;28.48;;;12.90;;
19691;SDS011;42748;50.016;19.890;2023-12-20T02:00:05;26.58;;;12.60;;
19691;SDS011;42748;50.016;19.890;2023-12-20T02:02:36;25.17;;;11.52;;
19691;SDS011;42748;50.016;19.890;2023-12-20T02:05:04;21.02;;;10.77;;
19691;SDS011;42748;50.016;19.890;2023-12-20T02:07:32;26.20;;;12.05;;
19691;SDS011;42748;50.016;19.890;2023-12-20T02:10:01;29.23;;;12.93;;
19691;SDS011;42748;50.016;19.890;2023-12-20T02:12:30;29.92;;;13.02;;
19691;SDS011;42748;50.016;19.890;2023-12-20T02:14:57;27.52;;;12.93;;
19691;SDS011;42748;50.016;19.890;2023-12-20T02:17:25;24.42;;;11.93;;
19691;SDS011;42748;50.016;19.890;2023-12-20T02:19:53;25.95;;;11.23;;
19691;SDS011;42748;50.016;19.890;2023-12-20T02:22:21;27.47;;;11.90;;
19691;SDS011;42748;50.016;19.890;2023-12-20T02:24:48;25.55;;;11.63;;
19691;SDS011;42748;50.016;19.890;2023-12-20T02:27:17;24.52;;;11.32;;
19691;SDS011;42748;50.016;19.890;2023-12-20T02:29:46;28.02;;;11.75;;
19691;SDS011;42748;50.016;19.890;2023-12-20T02:32:14;24.23;;;10.97;;
19691;SDS011;42748;50.016;19.890;2023-12-20T02:34:42;24.75;;;10.48;;
19691;SDS011;42748;50.016;19.890;2023-12-20T02:37:10;20.00;;;9.07;;
19691;SDS011;42748;50.016;19.890;2023-12-20T02:39:38;18.27;;;8.48;;
19691;SDS011;42748;50.016;19.890;2023-12-20T02:42:05;16.80;;;7.45;;
19691;SDS011;42748;50.016;19.890;2023-12-20T02:44:33;13.13;;;6.82;;
19691;SDS011;42748;50.016;19.890;2023-12-20T02:47:00;12.55;;;6.53;;
19691;SDS011;42748;50.016;19.890;2023-12-20T02:49:28;11.57;;;6.10;;
19691;SDS011;42748;50.016;19.890;2023-12-20T02:51:55;12.18;;;5.97;;
19691;SDS011;42748;50.016;19.890;2023-12-20T02:54:23;16.17;;;6.32;;
19691;SDS011;42748;50.016;19.890;2023-12-20T02:56:50;11.75;;;5.82;;
19691;SDS011;42748;50.016;19.890;2023-12-20T02:59:18;13.60;;;6.88;;
19691;SDS011;42748;50.016;19.890;2023-12-20T03:01:45;12.93;;;6.63;;
19691;SDS011;42748;50.016;19.890;2023-12-20T03:04:13;15.95;;;7.50;;
19691;SDS011;42748;50.016;19.890;2023-12-20T03:06:41;17.40;;;7.68;;
19691;SDS011;42748;50.016;19.890;2023-12-20T03:09:08;15.52;;;6.78;;
19691;SDS011;42748;50.016;19.890;2023-12-20T03:11:36;15.25;;;7.40;;
19691;SDS011;42748;50.016;19.890;2023-12-20T03:14:03;21.67;;;7.45;;
19691;SDS011;42748;50.016;19.890;2023-12-20T03:16:31;15.45;;;7.97;;
19691;SDS011;42748;50.016;19.890;2023-12-20T03:19:02;14.98;;;8.23;;
19691;SDS011;42748;50.016;19.890;2023-12-20T03:21:30;17.25;;;8.32;;
19691;SDS011;42748;50.016;19.890;2023-12-20T03:23:57;16.73;;;8.48;;
19691;SDS011;42748;50.016;19.890;2023-12-20T03:26:25;16.75;;;8.32;;
19691;SDS011;42748;50.016;19.890;2023-12-20T03:28:52;16.75;;;8.25;;
19691;SDS011;42748;50.016;19.890;2023-12-20T03:31:20;17.38;;;8.18;;
19691;SDS011;42748;50.016;19.890;2023-12-20T03:33:48;16.48;;;7.45;;
19691;SDS011;42748;50.016;19.890;2023-12-20T03:36:17;15.93;;;8.00;;
19691;SDS011;42748;50.016;19.890;2023-12-20T03:38:45;13.43;;;6.93;;
19691;SDS011;42748;50.016;19.890;2023-12-20T03:41:13;12.70;;;6.60;;
19691;SDS011;42748;50.016;19.890;2023-12-20T03:43:40;14.15;;;6.32;;
19691;SDS011;42748;50.016;19.890;2023-12-20T03:46:08;12.32;;;6.13;;
19691;SDS011;42748;50.016;19.890;2023-12-20T03:48:36;11.15;;;5.78;;
19691;SDS011;42748;50.016;19.890;2023-12-20T03:51:03;14.32;;;6.68;;
19691;SDS011;42748;50.016;19.890;2023-12-20T03:53:30;14.00;;;6.22;;
19691;SDS011;42748;50.016;19.890;2023-12-20T03:55:58;13.05;;;7.03;;
19691;SDS011;42748;50.016;19.890;2023-12-20T03:58:26;14.55;;;6.88;;
19691;SDS011;42748;50.016;19.890;2023-12-20T04:00:53;13.00;;;6.72;;
19691;SDS011;42748;50.016;19.890;2023-12-20T04:03:21;12.98;;;6.25;;
19691;SDS011;42748;50.016;19.890;2023-12-20T04:05:49;12.25;;;6.72;;
19691;SDS011;42748;50.016;19.890;2023-12-20T04:08:16;12.45;;;5.97;;
19691;SDS011;42748;50.016;19.890;2023-12-20T04:10:44;12.95;;;6.40;;
19691;SDS011;42748;50.016;19.890;2023-12-20T04:13:11;10.57;;;5.70;;
19691;SDS011;42748;50.016;19.890;2023-12-20T04:15:39;11.98;;;6.05;;
19691;SDS011;42748;50.016;19.890;2023-12-20T04:18:06;11.68;;;5.60;;
19691;SDS011;42748;50.016;19.890;2023-12-20T04:20:34;8.70;;;5.53;;
19691;SDS011;42748;50.016;19.890;2023-12-20T04:23:01;11.98;;;5.75;;
19691;SDS011;42748;50.016;19.890;2023-12-20T04:25:29;8.85;;;5.22;;
19691;SDS011;42748;50.016;19.890;2023-12-20T04:27:56;11.85;;;5.32;;
19691;SDS011;42748;50.016;19.890;2023-12-20T04:30:24;9.40;;;5.40;;
19691;SDS011;42748;50.016;19.890;2023-12-20T04:32:51;12.13;;;5.70;;
19691;SDS011;42748;50.016;19.890;2023-12-20T04:35:19;11.20;;;5.50;;
19691;SDS011;42748;50.016;19.890;2023-12-20T04:37:46;10.30;;;5.75;;
19691;SDS011;42748;50.016;19.890;2023-12-20T04:40:16;12.38;;;5.57;;
19691;SDS011;42748;50.016;19.890;2023-12-20T04:42:43;11.82;;;6.00;;
19691;SDS011;42748;50.016;19.890;2023-12-20T04:45:11;12.70;;;6.30;;
19691;SDS011;42748;50.016;19.890;2023-12-20T04:47:41;14.20;;;7.13;;
19691;SDS011;42748;50.016;19.890;2023-12-20T04:50:10;14.05;;;7.00;;
19691;SDS011;42748;50.016;19.890;2023-12-20T04:52:40;13.98;;;7.18;;
19691;SDS011;42748;50.016;19.890;2023-12-20T04:55:08;12.73;;;6.93;;
19691;SDS011;42748;50.016;19.890;2023-12-20T04:57:36;15.45;;;7.07;;
19691;SDS011;42748;50.016;19.890;2023-12-20T05:00:04;17.38;;;7.22;;
19691;SDS011;42748;50.016;19.890;2023-12-20T05:02:32;15.77;;;6.63;;
19691;SDS011;42748;50.016;19.890;2023-12-20T05:04:59;13.13;;;6.28;;
19691;SDS011;42748;50.016;19.890;2023-12-20T05:07:27;12.88;;;6.60;;
19691;SDS011;42748;50.016;19.890;2023-12-20T05:09:54;11.95;;;5.90;;
19691;SDS011;42748;50.016;19.890;2023-12-20T05:12:22;11.40;;;6.03;;
19691;SDS011;42748;50.016;19.890;2023-12-20T05:14:51;10.02;;;5.80;;
19691;SDS011;42748;50.016;19.890;2023-12-20T05:17:19;10.25;;;5.78;;
19691;SDS011;42748;50.016;19.890;2023-12-20T05:19:47;10.82;;;5.60;;
19691;SDS011;42748;50.016;19.890;2023-12-20T05:22:14;10.60;;;5.30;;
19691;SDS011;42748;50.016;19.890;2023-12-20T05:24:42;9.35;;;5.00;;
19691;SDS011;42748;50.016;19.890;2023-12-20T05:27:09;10.35;;;5.30;;
19691;SDS011;42748;50.016;19.890;2023-12-20T05:29:37;9.17;;;5.30;;
19691;SDS011;42748;50.016;19.890;2023-12-20T05:32:05;9.45;;;5.43;;
19691;SDS011;42748;50.016;19.890;2023-12-20T05:34:32;9.20;;;5.63;;
19691;SDS011;42748;50.016;19.890;2023-12-20T05:37:00;11.03;;;5.77;;
19691;SDS011;42748;50.016;19.890;2023-12-20T05:39:28;9.77;;;5.70;;
19691;SDS011;42748;50.016;19.890;2023-12-20T05:41:57;10.83;;;5.80;;
19691;SDS011;42748;50.016;19.890;2023-12-20T05:44:25;13.20;;;5.90;;
19691;SDS011;42748;50.016;19.890;2023-12-20T05:46:52;10.87;;;5.73;;
19691;SDS011;42748;50.016;19.890;2023-12-20T05:49:20;13.03;;;6.23;;
19691;SDS011;42748;50.016;19.890;2023-12-20T05:51:48;12.70;;;6.50;;
19691;SDS011;42748;50.016;19.890;2023-12-20T05:54:17;13.67;;;6.47;;
19691;SDS011;42748;50.016;19.890;2023-12-20T05:56:45;13.73;;;6.70;;
19691;SDS011;42748;50.016;19.890;2023-12-20T05:59:13;12.37;;;6.77;;
19691;SDS011;42748;50.016;19.890;2023-12-20T06:01:40;12.73;;;6.77;;
19691;SDS011;42748;50.016;19.890;2023-12-20T06:04:08;13.07;;;6.53;;
19691;SDS011;42748;50.016;19.890;2023-12-20T06:06:40;13.07;;;7.10;;
19691;SDS011;42748;50.016;19.890;2023-12-20T06:09:08;14.87;;;7.17;;
19691;SDS011;42748;50.016;19.890;2023-12-20T06:11:35;11.90;;;6.17;;
19691;SDS011;42748;50.016;19.890;2023-12-20T06:14:03;12.30;;;6.70;;
19691;SDS011;42748;50.016;19.890;2023-12-20T06:16:30;12.20;;;6.40;;
19691;SDS011;42748;50.016;19.890;2023-12-20T06:18:58;11.60;;;6.40;;
19691;SDS011;42748;50.016;19.890;2023-12-20T06:21:25;11.83;;;6.30;;
19691;SDS011;42748;50.016;19.890;2023-12-20T06:23:53;11.50;;;6.60;;
19691;SDS011;42748;50.016;19.890;2023-12-20T06:26:21;10.87;;;6.60;;
19691;SDS011;42748;50.016;19.890;2023-12-20T06:28:48;13.67;;;7.00;;
19691;SDS011;42748;50.016;19.890;2023-12-20T06:31:16;13.83;;;7.37;;
19691;SDS011;42748;50.016;19.890;2023-12-20T06:33:44;14.17;;;7.87;;
19691;SDS011;42748;50.016;19.890;2023-12-20T06:36:12;13.23;;;7.77;;
19691;SDS011;42748;50.016;19.890;2023-12-20T06:38:39;15.50;;;8.37;;
19691;SDS011;42748;50.016;19.890;2023-12-20T06:41:08;15.17;;;7.97;;
19691;SDS011;42748;50.016;19.890;2023-12-20T06:43:36;18.37;;;9.00;;
19691;SDS011;42748;50.016;19.890;2023-12-20T06:46:15;18.83;;;8.33;;
19691;SDS011;42748;50.016;19.890;2023-12-20T06:48:44;15.30;;;8.63;;
19691;SDS011;42748;50.016;19.890;2023-12-20T06:51:14;16.77;;;8.83;;
19691;SDS011;42748;50.016;19.890;2023-12-20T06:53:42;16.17;;;9.10;;
19691;SDS011;42748;50.016;19.890;2023-12-20T06:56:10;18.67;;;9.63;;
19691;SDS011;42748;50.016;19.890;2023-12-20T06:58:44;16.67;;;9.33;;
19691;SDS011;42748;50.016;19.890;2023-12-20T07:01:11;16.40;;;9.10;;
19691;SDS011;42748;50.016;19.890;2023-12-20T07:03:39;17.23;;;9.33;;
19691;SDS011;42748;50.016;19.890;2023-12-20T07:06:08;16.90;;;9.43;;
19691;SDS011;42748;50.016;19.890;2023-12-20T07:08:35;16.50;;;9.80;;
19691;SDS011;42748;50.016;19.890;2023-12-20T07:11:03;18.77;;;10.70;;
19691;SDS011;42748;50.016;19.890;2023-12-20T07:13:30;18.50;;;10.50;;
19691;SDS011;42748;50.016;19.890;2023-12-20T07:15:58;17.23;;;9.90;;
19691;SDS011;42748;50.016;19.890;2023-12-20T07:18:26;22.40;;;10.60;;
19691;SDS011;42748;50.016;19.890;2023-12-20T07:20:53;21.23;;;11.10;;
19691;SDS011;42748;50.016;19.890;2023-12-20T07:23:21;19.33;;;10.83;;
19691;SDS011;42748;50.016;19.890;2023-12-20T07:25:49;20.17;;;10.77;;
19691;SDS011;42748;50.016;19.890;2023-12-20T07:28:16;21.40;;;11.40;;
19691;SDS011;42748;50.016;19.890;2023-12-20T07:30:44;21.97;;;11.93;;
19691;SDS011;42748;50.016;19.890;2023-12-20T07:33:12;27.63;;;13.00;;
19691;SDS011;42748;50.016;19.890;2023-12-20T07:35:39;24.77;;;13.10;;
19691;SDS011;42748;50.016;19.890;2023-12-20T07:38:07;25.63;;;13.43;;
19691;SDS011;42748;50.016;19.890;2023-12-20T07:40:35;26.97;;;13.33;;
19691;SDS011;42748;50.016;19.890;2023-12-20T07:43:02;25.90;;;13.30;;
19691;SDS011;42748;50.016;19.890;2023-12-20T07:45:30;25.17;;;14.10;;
19691;SDS011;42748;50.016;19.890;2023-12-20T07:47:57;26.10;;;13.57;;
19691;SDS011;42748;50.016;19.890;2023-12-20T07:50:25;22.77;;;11.27;;
19691;SDS011;42748;50.016;19.890;2023-12-20T07:52:53;28.07;;;13.40;;
19691;SDS011;42748;50.016;19.890;2023-12-20T07:55:20;25.07;;;13.33;;
19691;SDS011;42748;50.016;19.890;2023-12-20T07:57:49;28.27;;;15.10;;
19691;SDS011;42748;50.016;19.890;2023-12-20T08:00:17;26.13;;;14.27;;
19691;SDS011;42748;50.016;19.890;2023-12-20T08:02:45;26.30;;;13.07;;
19691;SDS011;42748;50.016;19.890;2023-12-20T08:05:12;25.23;;;13.73;;
19691;SDS011;42748;50.016;19.890;2023-12-20T08:07:41;26.33;;;14.83;;
19691;SDS011;42748;50.016;19.890;2023-12-20T08:10:09;30.90;;;15.03;;
19691;SDS011;42748;50.016;19.890;2023-12-20T08:12:38;27.10;;;14.57;;
19691;SDS011;42748;50.016;19.890;2023-12-20T08:15:06;28.07;;;15.07;;
19691;SDS011;42748;50.016;19.890;2023-12-20T08:17:33;30.50;;;15.67;;
19691;SDS011;42748;50.016;19.890;2023-12-20T08:20:01;28.90;;;15.63;;
19691;SDS011;42748;50.016;19.890;2023-12-20T08:22:29;26.67;;;15.07;;
19691;SDS011;42748;50.016;19.890;2023-12-20T08:24:57;28.13;;;15.07;;
19691;SDS011;42748;50.016;19.890;2023-12-20T08:27:24;26.77;;;14.10;;
19691;SDS011;42748;50.016;19.890;2023-12-20T08:29:52;30.20;;;15.50;;
19691;SDS011;42748;50.016;19.890;2023-12-20T08:32:19;33.37;;;15.13;;
19691;SDS011;42748;50.016;19.890;2023-12-20T08:34:47;29.33;;;14.77;;
19691;SDS011;42748;50.016;19.890;2023-12-20T08:37:15;27.30;;;14.47;;
19691;SDS011;42748;50.016;19.890;2023-12-20T08:39:42;25.13;;;13.40;;
19691;SDS011;42748;50.016;19.890;2023-12-20T08:42:11;26.90;;;13.83;;
19691;SDS011;42748;50.016;19.890;2023-12-20T08:44:39;20.83;;;11.03;;
19691;SDS011;42748;50.016;19.890;2023-12-20T08:47:06;29.00;;;13.63;;
19691;SDS011;42748;50.016;19.890;2023-12-20T08:49:34;26.97;;;14.27;;
19691;SDS011;42748;50.016;19.890;2023-12-20T08:52:02;24.27;;;12.67;;
19691;SDS011;42748;50.016;19.890;2023-12-20T08:54:30;24.67;;;12.53;;
19691;SDS011;42748;50.016;19.890;2023-12-20T08:56:58;21.67;;;11.10;;
19691;SDS011;42748;50.016;19.890;2023-12-20T08:59:25;22.70;;;12.10;;
19691;SDS011;42748;50.016;19.890;2023-12-20T09:01:52;19.27;;;10.67;;
19691;SDS011;42748;50.016;19.890;2023-12-20T09:04:21;22.33;;;10.83;;
19691;SDS011;42748;50.016;19.890;2023-12-20T09:06:49;22.90;;;10.87;;
19691;SDS011;42748;50.016;19.890;2023-12-20T09:09:16;18.17;;;9.70;;
19691;SDS011;42748;50.016;19.890;2023-12-20T09:11:45;21.73;;;10.53;;
19691;SDS011;42748;50.016;19.890;2023-12-20T09:14:14;18.90;;;9.57;;
19691;SDS011;42748;50.016;19.890;2023-12-20T09:16:42;22.20;;;11.50;;
19691;SDS011;42748;50.016;19.890;2023-12-20T09:19:09;20.93;;;11.07;;
19691;SDS011;42748;50.016;19.890;2023-12-20T09:21:37;19.80;;;11.13;;
19691;SDS011;42748;50.016;19.890;2023-12-20T09:24:05;20.90;;;11.87;;
19691;SDS011;42748;50.016;19.890;2023-12-20T09:26:32;20.37;;;10.10;;
19691;SDS011;42748;50.016;19.890;2023-12-20T09:29:00;21.33;;;11.37;;
19691;SDS011;42748;50.016;19.890;2023-12-20T09:31:28;21.23;;;11.37;;
19691;SDS011;42748;50.016;19.890;2023-12-20T09:33:55;19.47;;;11.40;;
19691;SDS011;42748;50.016;19.890;2023-12-20T09:36:23;21.13;;;11.53;;
19691;SDS011;42748;50.016;19.890;2023-12-20T09:38:50;20.23;;;11.10;;
19691;SDS011;42748;50.016;19.890;2023-12-20T09:41:19;20.10;;;11.47;;
19691;SDS011;42748;50.016;19.890;2023-12-20T09:43:47;22.47;;;11.20;;
19691;SDS011;42748;50.016;19.890;2023-12-20T09:46:16;22.80;;;11.87;;
19691;SDS011;42748;50.016;19.890;2023-12-20T09:48:46;19.13;;;11.07;;
19691;SDS011;42748;50.016;19.890;2023-12-20T09:51:14;20.10;;;11.60;;
19691;SDS011;42748;50.016;19.890;2023-12-20T09:53:42;21.40;;;11.33;;
19691;SDS011;42748;50.016;19.890;2023-12-20T09:56:10;20.20;;;10.83;;
19691;SDS011;42748;50.016;19.890;2023-12-20T09:58:38;21.00;;;11.07;;
19691;SDS011;42748;50.016;19.890;2023-12-20T10:01:06;23.00;;;11.87;;
19691;SDS011;42748;50.016;19.890;2023-12-20T10:03:35;25.30;;;12.57;;
19691;SDS011;42748;50.016;19.890;2023-12-20T10:06:03;19.00;;;10.70;;
19691;SDS011;42748;50.016;19.890;2023-12-20T10:08:31;20.27;;;10.80;;
19691;SDS011;42748;50.016;19.890;2023-12-20T10:10:59;21.73;;;11.23;;
19691;SDS011;42748;50.016;19.890;2023-12-20T10:13:29;17.93;;;10.30;;
19691;SDS011;42748;50.016;19.890;2023-12-20T10:15:57;19.53;;;10.80;;
19691;SDS011;42748;50.016;19.890;2023-12-20T10:18:25;19.83;;;10.90;;
19691;SDS011;42748;50.016;19.890;2023-12-20T10:21:05;18.17;;;10.17;;
19691;SDS011;42748;50.016;19.890;2023-12-20T10:23:33;16.23;;;9.40;;
19691;SDS011;42748;50.016;19.890;2023-12-20T10:26:01;14.70;;;8.27;;
19691;SDS011;42748;50.016;19.890;2023-12-20T10:28:32;14.43;;;8.70;;
19691;SDS011;42748;50.016;19.890;2023-12-20T10:31:01;11.30;;;6.97;;
19691;SDS011;42748;50.016;19.890;2023-12-20T10:33:30;13.33;;;7.57;;
19691;SDS011;42748;50.016;19.890;2023-12-20T10:35:59;14.53;;;7.17;;
19691;SDS011;42748;50.016;19.890;2023-12-20T10:38:27;13.33;;;6.70;;
19691;SDS011;42748;50.016;19.890;2023-12-20T10:40:57;13.80;;;7.37;;
19691;SDS011;42748;50.016;19.890;2023-12-20T10:43:26;13.03;;;7.50;;
19691;SDS011;42748;50.016;19.890;2023-12-20T10:45:56;13.73;;;7.63;;
19691;SDS011;42748;50.016;19.890;2023-12-20T10:48:24;14.03;;;7.90;;
19691;SDS011;42748;50.016;19.890;2023-12-20T10:50:57;15.37;;;7.83;;
19691;SDS011;42748;50.016;19.890;2023-12-20T10:53:25;12.57;;;7.37;;
19691;SDS011;42748;50.016;19.890;2023-12-20T10:55:53;12.80;;;7.87;;
19691;SDS011;42748;50.016;19.890;2023-12-20T10:58:26;16.43;;;7.80;;
19691;SDS011;42748;50.016;19.890;2023-12-20T11:00:58;16.27;;;8.23;;
19691;SDS011;42748;50.016;19.890;2023-12-20T11:03:28;17.87;;;9.33;;
19691;SDS011;42748;50.016;19.890;2023-12-20T11:06:03;15.77;;;8.87;;
19691;SDS011;42748;50.016;19.890;2023-12-20T11:08:36;16.23;;;9.07;;
19691;SDS011;42748;50.016;19.890;2023-12-20T11:11:07;16.07;;;8.50;;
19691;SDS011;42748;50.016;19.890;2023-12-20T11:13:48;16.80;;;8.83;;
19691;SDS011;42748;50.016;19.890;2023-12-20T11:16:20;15.93;;;8.77;;
19691;SDS011;42748;50.016;19.890;2023-12-20T11:18:51;14.17;;;8.67;;
19691;SDS011;42748;50.016;19.890;2023-12-20T11:21:19;12.87;;;7.80;;
19691;SDS011;42748;50.016;19.890;2023-12-20T11:23:46;13.40;;;7.67;;
19691;SDS011;42748;50.016;19.890;2023-12-20T11:26:18;15.87;;;7.90;;
19691;SDS011;42748;50.016;19.890;2023-12-20T11:28:49;15.47;;;7.97;;
19691;SDS011;42748;50.016;19.890;2023-12-20T11:31:17;12.17;;;6.90;;
19691;SDS011;42748;50.016;19.890;2023-12-20T11:33:46;12.90;;;7.20;;
19691;SDS011;42748;50.016;19.890;2023-12-20T11:36:18;12.43;;;7.30;;
19691;SDS011;42748;50.016;19.890;2023-12-20T11:38:49;10.33;;;6.30;;
19691;SDS011;42748;50.016;19.890;2023-12-20T11:41:22;11.77;;;6.50;;
19691;SDS011;42748;50.016;19.890;2023-12-20T11:43:53;12.07;;;6.70;;
19691;SDS011;42748;50.016;19.890;2023-12-20T11:46:21;11.43;;;6.43;;
19691;SDS011;42748;50.016;19.890;2023-12-20T11:48:49;12.03;;;6.63;;
19691;SDS011;42748;50.016;19.890;2023-12-20T11:51:18;12.63;;;6.73;;
19691;SDS011;42748;50.016;19.890;2023-12-20T11:53:50;12.63;;;6.53;;
19691;SDS011;42748;50.016;19.890;2023-12-20T11:56:19;13.30;;;6.63;;
19691;SDS011;42748;50.016;19.890;2023-12-20T11:58:47;11.97;;;7.23;;
19691;SDS011;42748;50.016;19.890;2023-12-20T12:01:17;13.03;;;7.13;;
19691;SDS011;42748;50.016;19.890;2023-12-20T12:03:44;10.57;;;6.47;;
19691;SDS011;42748;50.016;19.890;2023-12-20T12:06:12;11.57;;;5.73;;
19691;SDS011;42748;50.016;19.890;2023-12-20T12:08:40;11.47;;;6.47;;
19691;SDS011;42748;50.016;19.890;2023-12-20T12:11:08;13.30;;;7.90;;
19691;SDS011;42748;50.016;19.890;2023-12-20T12:13:35;6.93;;;4.00;;
19691;SDS011;42748;50.016;19.890;2023-12-20T12:16:03;11.83;;;6.53;;
19691;SDS011;42748;50.016;19.890;2023-12-20T12:18:31;11.10;;;5.97;;
19691;SDS011;42748;50.016;19.890;2023-12-20T12:20:59;12.33;;;6.30;;
19691;SDS011;42748;50.016;19.890;2023-12-20T12:23:28;11.93;;;6.93;;
19691;SDS011;42748;50.016;19.890;2023-12-20T12:25:55;11.67;;;6.80;;
19691;SDS011;42748;50.016;19.890;2023-12-20T12:28:25;12.70;;;7.07;;
19691;SDS011;42748;50.016;19.890;2023-12-20T12:30:58;14.87;;;7.20;;
19691;SDS011;42748;50.016;19.890;2023-12-20T12:33:26;11.33;;;7.00;;
19691;SDS011;42748;50.016;19.890;2023-12-20T12:35:54;11.00;;;6.80;;
19691;SDS011;42748;50.016;19.890;2023-12-20T12:38:22;11.90;;;7.40;;
19691;SDS011;42748;50.016;19.890;2023-12-20T12:40:51;13.00;;;7.23;;
19691;SDS011;42748;50.016;19.890;2023-12-20T12:43:20;13.23;;;7.20;;
19691;SDS011;42748;50.016;19.890;2023-12-20T12:45:49;12.63;;;5.77;;
19691;SDS011;42748;50.016;19.890;2023-12-20T12:48:17;14.43;;;7.30;;
19691;SDS011;42748;50.016;19.890;2023-12-20T12:50:45;13.83;;;6.87;;
19691;SDS011;42748;50.016;19.890;2023-12-20T12:53:13;12.23;;;7.07;;
19691;SDS011;42748;50.016;19.890;2023-12-20T12:55:41;13.97;;;7.40;;
19691;SDS011;42748;50.016;19.890;2023-12-20T12:58:08;14.13;;;7.90;;
19691;SDS011;42748;50.016;19.890;2023-12-20T13:00:36;12.27;;;6.90;;
19691;SDS011;42748;50.016;19.890;2023-12-20T13:03:04;13.70;;;7.03;;
19691;SDS011;42748;50.016;19.890;2023-12-20T13:05:31;13.10;;;7.87;;
19691;SDS011;42748;50.016;19.890;2023-12-20T13:08:05;12.70;;;7.10;;
19691;SDS011;42748;50.016;19.890;2023-12-20T13:10:33;14.40;;;7.60;;
19691;SDS011;42748;50.016;19.890;2023-12-20T13:13:00;14.00;;;7.10;;
19691;SDS011;42748;50.016;19.890;2023-12-20T13:15:28;13.23;;;6.87;;
19691;SDS011;42748;50.016;19.890;2023-12-20T13:17:56;11.60;;;6.47;;
19691;SDS011;42748;50.016;19.890;2023-12-20T13:20:24;15.20;;;7.50;;
19691;SDS011;42748;50.016;19.890;2023-12-20T13:22:52;13.53;;;7.37;;
19691;SDS011;42748;50.016;19.890;2023-12-20T13:25:19;11.83;;;6.97;;
19691;SDS011;42748;50.016;19.890;2023-12-20T13:27:47;14.10;;;7.13;;
19691;SDS011;42748;50.016;19.890;2023-12-20T13:30:16;13.13;;;7.43;;
19691;SDS011;42748;50.016;19.890;2023-12-20T13:32:44;12.93;;;7.10;;
19691;SDS011;42748;50.016;19.890;2023-12-20T13:35:11;15.50;;;7.73;;
19691;SDS011;42748;50.016;19.890;2023-12-20T13:37:39;13.23;;;6.80;;
19691;SDS011;42748;50.016;19.890;2023-12-20T13:40:07;10.67;;;6.00;;
19691;SDS011;42748;50.016;19.890;2023-12-20T13:42:35;11.57;;;6.50;;
19691;SDS011;42748;50.016;19.890;2023-12-20T13:45:02;13.57;;;6.37;;
19691;SDS011;42748;50.016;19.890;2023-12-20T13:47:31;11.53;;;6.40;;
19691;SDS011;42748;50.016;19.890;2023-12-20T13:49:59;13.17;;;6.67;;
19691;SDS011;42748;50.016;19.890;2023-12-20T13:52:27;11.90;;;6.27;;
19691;SDS011;42748;50.016;19.890;2023-12-20T13:54:54;11.17;;;6.43;;
19691;SDS011;42748;50.016;19.890;2023-12-20T13:57:22;12.93;;;6.40;;
19691;SDS011;42748;50.016;19.890;2023-12-20T14:00:09;11.27;;;6.80;;
19691;SDS011;42748;50.016;19.890;2023-12-20T14:02:41;13.97;;;7.33;;
19691;SDS011;42748;50.016;19.890;2023-12-20T14:05:09;13.27;;;7.40;;
19691;SDS011;42748;50.016;19.890;2023-12-20T14:07:37;13.93;;;7.33;;
19691;SDS011;42748;50.016;19.890;2023-12-20T14:10:05;14.00;;;7.80;;
19691;SDS011;42748;50.016;19.890;2023-12-20T14:12:33;14.80;;;7.77;;
19691;SDS011;42748;50.016;19.890;2023-12-20T14:15:03;14.37;;;7.50;;
19691;SDS011;42748;50.016;19.890;2023-12-20T14:17:30;14.30;;;7.90;;
19691;SDS011;42748;50.016;19.890;2023-12-20T14:19:58;13.83;;;7.83;;
19691;SDS011;42748;50.016;19.890;2023-12-20T14:22:26;14.33;;;7.87;;